createdAt,value
2023-01-17T00:02:31.585Z,77.69
2023-01-17T00:07:53.390Z,77.85
2023-01-17T00:13:03.686Z,78.13
2023-01-17T00:18:05.487Z,78.44
2023-01-17T00:23:26.816Z,78.36
2023-01-17T00:28:29.612Z,78.30
2023-01-17T00:33:32.880Z,78.17
2023-01-17T00:38:36.135Z,78.13
2023-01-17T00:43:57.086Z,78.21
2023-01-17T00:49:20.387Z,77.95
2023-01-17T00:54:41.047Z,77.78
2023-01-17T01:00:01.673Z,77.72
2023-01-17T01:05:23.018Z,77.85
2023-01-17T01:10:43.541Z,77.98
2023-01-17T01:16:04.150Z,77.94
2023-01-17T01:21:35.405Z,78.24
2023-01-17T01:26:55.940Z,79.11
2023-01-17T01:32:16.461Z,79.47
2023-01-17T01:37:18.203Z,79.99
2023-01-17T01:42:19.903Z,80.20
2023-01-17T01:47:24.707Z,80.31
2023-01-17T01:52:28.072Z,80.43
2023-01-17T01:57:32.017Z,79.93
2023-01-17T02:02:34.905Z,79.61
2023-01-17T02:07:41.595Z,79.28
2023-01-17T02:12:44.737Z,79.28
2023-01-17T02:17:55.393Z,79.22
2023-01-17T02:23:01.493Z,79.22
2023-01-17T02:28:31.643Z,79.27
2023-01-17T02:33:40.439Z,79.15
2023-01-17T02:38:48.425Z,78.56
2023-01-17T02:43:51.414Z,78.28
2023-01-17T02:48:54.829Z,78.43
2023-01-17T02:53:56.556Z,78.39
2023-01-17T02:59:14.765Z,78.51
2023-01-17T03:04:21.613Z,78.51
2023-01-17T03:09:24.733Z,78.56
2023-01-17T03:14:30.254Z,79.12
2023-01-17T03:19:32.178Z,79.26
2023-01-17T03:24:33.808Z,79.14
2023-01-17T03:29:35.532Z,79.28
2023-01-17T03:34:37.263Z,79.10
2023-01-17T03:39:39.026Z,78.76
2023-01-17T03:44:40.839Z,78.43
2023-01-17T03:49:43.501Z,78.44
2023-01-17T03:54:45.383Z,78.15
2023-01-17T03:59:48.770Z,77.62
2023-01-17T04:04:51.168Z,77.27
2023-01-17T04:09:53.066Z,77.12
2023-01-17T04:14:54.722Z,77.09
2023-01-17T04:19:56.451Z,77.24
2023-01-17T04:24:58.821Z,77.26
2023-01-17T04:30:00.775Z,77.06
2023-01-17T04:35:04.510Z,76.92
2023-01-17T04:40:06.466Z,76.70
2023-01-17T04:45:08.529Z,76.49
2023-01-17T04:50:10.884Z,76.58
2023-01-17T04:55:12.866Z,76.62
2023-01-17T05:00:14.942Z,76.66
2023-01-17T05:05:16.750Z,76.78
2023-01-17T05:10:18.406Z,76.88
2023-01-17T05:15:20.251Z,76.89
2023-01-17T05:20:23.241Z,76.92
2023-01-17T05:25:26.101Z,76.81
2023-01-17T05:30:28.973Z,77.06
2023-01-17T05:35:34.797Z,77.35
2023-01-17T05:40:36.562Z,77.50
2023-01-17T05:45:38.370Z,77.36
2023-01-17T05:50:40.981Z,76.98
2023-01-17T05:55:43.125Z,76.54
2023-01-17T06:00:44.907Z,76.76
2023-01-17T06:05:47.501Z,76.89
2023-01-17T06:10:50.267Z,77.05
2023-01-17T06:15:53.130Z,76.98
2023-01-17T06:20:55.155Z,76.70
2023-01-17T06:25:56.864Z,76.54
2023-01-17T06:30:59.843Z,76.56
2023-01-17T06:36:01.776Z,76.64
2023-01-17T06:41:05.695Z,76.97
2023-01-17T06:46:07.510Z,77.19
2023-01-17T06:51:09.631Z,77.43
2023-01-17T06:56:11.709Z,77.48
2023-01-17T07:01:13.550Z,77.38
2023-01-17T07:06:15.751Z,77.14
2023-01-17T07:11:17.525Z,76.88
2023-01-17T07:16:19.424Z,76.72
2023-01-17T07:21:21.207Z,76.60
2023-01-17T07:26:23.044Z,76.35
2023-01-17T07:31:24.868Z,76.14
2023-01-17T07:36:26.677Z,76.06
2023-01-17T07:43:45.669Z,75.81
2023-01-17T07:48:47.222Z,75.49
2023-01-17T07:53:48.949Z,74.97
2023-01-17T07:58:50.557Z,74.68
2023-01-17T08:03:54.867Z,74.64
2023-01-17T08:08:58.964Z,74.69
2023-01-17T08:14:00.670Z,74.79
2023-01-17T08:19:02.333Z,74.80
2023-01-17T08:24:04.235Z,74.59
2023-01-17T08:29:06.460Z,74.42
2023-01-17T08:34:08.166Z,74.31
2023-01-17T08:39:10.166Z,74.08
2023-01-17T08:44:12.467Z,73.90
2023-01-17T08:49:14.305Z,73.80
2023-01-17T08:54:16.624Z,73.67
2023-01-17T08:59:18.971Z,72.77
2023-01-17T09:04:21.376Z,71.05
2023-01-17T09:09:23.501Z,68.35
2023-01-17T09:14:25.317Z,66.30
2023-01-17T09:19:28.077Z,65.36
2023-01-17T09:24:31.095Z,65.07
2023-01-17T09:29:32.704Z,64.37
2023-01-17T09:34:34.290Z,63.67
2023-01-17T09:39:35.949Z,63.43
2023-01-17T09:44:47.668Z,63.01
2023-01-17T09:49:52.225Z,62.78
2023-01-17T09:54:54.007Z,62.25
2023-01-17T10:00:14.310Z,62.52
2023-01-17T10:05:43.208Z,62.08
2023-01-17T10:11:22.703Z,61.96
2023-01-17T10:16:43.595Z,61.59
2023-01-17T10:21:59.176Z,61.05
2023-01-17T10:27:03.420Z,60.27
2023-01-17T10:32:06.121Z,60.29
2023-01-17T10:37:20.525Z,59.87
2023-01-17T10:42:34.026Z,59.74
2023-01-17T10:47:37.550Z,59.63
2023-01-17T10:52:48.506Z,61.33
2023-01-17T10:57:51.222Z,62.33
2023-01-17T11:02:53.112Z,60.17
2023-01-17T11:07:59.196Z,59.77
2023-01-17T11:13:01.289Z,60.98
2023-01-17T11:18:06.525Z,61.51
2023-01-17T11:23:18.103Z,60.43
2023-01-17T11:28:30.187Z,60.51
2023-01-17T11:33:48.138Z,60.49
2023-01-17T11:39:04.749Z,60.04
2023-01-17T11:44:24.931Z,59.78
2023-01-17T11:49:26.680Z,60.27
2023-01-17T11:54:39.135Z,60.90
2023-01-17T11:59:45.230Z,61.30
2023-01-17T12:05:17.373Z,60.82
2023-01-17T12:10:21.897Z,60.05
2023-01-17T12:15:36.055Z,57.70
2023-01-17T12:21:17.957Z,57.41
2023-01-17T12:26:34.351Z,58.35
2023-01-17T12:31:43.339Z,58.47
2023-01-17T12:37:05.452Z,58.03
2023-01-17T12:42:19.842Z,57.97
2023-01-17T12:47:21.863Z,59.00
2023-01-17T12:52:35.692Z,59.66
2023-01-17T12:57:45.201Z,59.43
2023-01-17T13:03:03.563Z,59.03
2023-01-17T13:08:34.567Z,59.32
2023-01-17T13:13:36.795Z,58.97
2023-01-17T13:18:47.016Z,58.57
2023-01-17T13:24:04.129Z,58.62
2023-01-17T13:29:27.114Z,58.43
2023-01-17T13:34:35.230Z,58.35
2023-01-17T13:40:00.381Z,58.09
2023-01-17T13:45:08.820Z,57.97
2023-01-17T13:50:36.367Z,58.48
2023-01-17T13:55:50.328Z,58.63
2023-01-17T14:00:52.457Z,58.20
2023-01-17T14:05:57.568Z,58.64
2023-01-17T14:11:10.010Z,59.14
2023-01-17T14:16:21.141Z,59.81
2023-01-17T14:21:31.597Z,60.14
2023-01-17T14:26:52.167Z,60.88
2023-01-17T14:32:02.719Z,61.51
2023-01-17T14:37:14.639Z,61.74
2023-01-17T14:42:23.666Z,62.34
2023-01-17T14:47:28.345Z,61.12
2023-01-17T14:52:30.112Z,59.11
2023-01-17T14:57:31.805Z,60.24
2023-01-17T15:02:33.841Z,62.27
2023-01-17T15:07:36.747Z,61.96
2023-01-17T15:12:38.782Z,59.52
2023-01-17T15:17:40.410Z,59.83
2023-01-17T15:22:42.351Z,62.34
2023-01-17T15:27:44.293Z,63.98
2023-01-17T15:32:51.224Z,59.83
2023-01-17T15:37:54.989Z,57.80
2023-01-17T15:43:00.937Z,59.29
2023-01-17T15:48:36.154Z,68.48
2023-01-17T15:53:41.648Z,62.34
2023-01-17T15:58:43.314Z,55.05
2023-01-17T16:03:52.546Z,57.70
2023-01-17T16:08:54.491Z,60.49
2023-01-17T16:13:56.139Z,69.63
2023-01-17T16:19:00.686Z,63.16
2023-01-17T16:24:03.126Z,56.09
2023-01-17T16:29:04.820Z,56.02
2023-01-17T16:34:14.631Z,60.33
2023-01-17T16:39:16.336Z,69.00
2023-01-17T16:44:18.153Z,67.38
2023-01-17T16:49:19.851Z,59.42
2023-01-17T16:54:21.528Z,54.55
2023-01-17T16:59:23.296Z,55.64
2023-01-17T17:04:26.055Z,55.08
2023-01-17T17:09:27.782Z,58.83
2023-01-17T17:14:29.725Z,68.40
2023-01-17T17:19:31.375Z,64.31
2023-01-17T17:24:33.495Z,54.95
2023-01-17T17:29:36.140Z,54.54
2023-01-17T17:34:38.763Z,56.71
2023-01-17T17:39:40.462Z,59.42
2023-01-17T17:44:42.009Z,69.49
2023-01-17T17:49:43.778Z,63.99
2023-01-17T17:54:45.506Z,54.87
2023-01-17T17:59:47.280Z,53.98
2023-01-17T18:04:49.185Z,54.65
2023-01-17T18:09:59.835Z,54.94
2023-01-17T18:15:04.600Z,55.31
2023-01-17T18:20:07.752Z,56.13
2023-01-17T18:25:11.519Z,58.38
2023-01-17T18:30:13.447Z,60.83
2023-01-17T18:35:15.277Z,61.44
2023-01-17T18:40:17.285Z,65.67
2023-01-17T18:45:19.121Z,75.62
2023-01-17T18:50:20.943Z,62.97
2023-01-17T18:55:23.056Z,55.54
2023-01-17T19:00:24.877Z,58.70
2023-01-17T19:05:26.670Z,64.25
2023-01-17T19:10:28.413Z,68.36
2023-01-17T19:15:30.973Z,59.33
2023-01-17T19:24:10.534Z,59.39
2023-01-17T19:29:12.420Z,66.73
2023-01-17T19:34:15.031Z,60.30
2023-01-17T19:39:16.693Z,58.23
2023-01-17T19:44:18.273Z,66.15
2023-01-17T19:49:24.769Z,60.27
2023-01-17T19:54:26.503Z,57.75
2023-01-17T19:59:28.187Z,66.10
2023-01-17T20:04:30.083Z,62.84
2023-01-17T20:09:33.495Z,55.98
2023-01-17T20:14:35.381Z,56.63
2023-01-17T20:19:37.061Z,65.89
2023-01-17T20:24:38.928Z,65.38
2023-01-17T20:29:40.654Z,57.91
2023-01-17T20:34:44.680Z,55.73
2023-01-17T20:39:48.239Z,58.35
2023-01-17T20:44:50.888Z,68.18
2023-01-17T20:49:52.916Z,61.79
2023-01-17T20:54:55.514Z,56.05
2023-01-17T20:59:57.223Z,59.14
2023-01-17T21:05:01.470Z,67.73
2023-01-17T21:10:03.778Z,61.15
2023-01-17T21:15:06.102Z,55.16
2023-01-17T21:20:08.926Z,59.05
2023-01-17T21:25:24.492Z,66.78
2023-01-17T21:30:26.136Z,63.91
2023-01-17T21:35:30.050Z,58.56
2023-01-17T21:40:33.034Z,54.69
2023-01-17T21:45:38.599Z,60.08
2023-01-17T21:50:40.320Z,67.73
2023-01-17T21:56:00.745Z,63.02
2023-01-17T22:01:16.051Z,59.15
2023-01-17T22:06:19.721Z,56.63
2023-01-17T22:11:24.357Z,59.73
2023-01-17T22:16:26.780Z,67.92
2023-01-17T22:21:29.124Z,63.61
2023-01-17T22:26:31.460Z,56.06
2023-01-17T22:31:33.793Z,54.64
2023-01-17T22:36:35.618Z,60.60
2023-01-17T22:41:38.442Z,67.46
2023-01-17T22:46:41.461Z,63.08
2023-01-17T22:51:43.169Z,56.21
2023-01-17T22:56:44.752Z,59.19
2023-01-17T23:01:46.362Z,60.75
2023-01-17T23:06:48.118Z,67.38
2023-01-17T23:11:52.733Z,65.21
2023-01-17T23:17:20.275Z,57.59
2023-01-17T23:22:27.541Z,58.50
2023-01-17T23:27:47.796Z,65.80
2023-01-17T23:32:52.618Z,64.08
2023-01-17T23:38:14.504Z,55.77
2023-01-17T23:43:25.333Z,57.12
2023-01-17T23:48:29.769Z,59.71
2023-01-17T23:53:31.555Z,68.06
2023-01-17T23:58:33.957Z,62.99
